createdAt,value
2022-11-24T00:00:47.364Z,73.02
2022-11-24T00:03:20.393Z,72.87
2022-11-24T00:05:52.111Z,72.81
2022-11-24T00:08:24.892Z,72.97
2022-11-24T00:10:56.402Z,72.90
2022-11-24T00:13:28.800Z,72.83
2022-11-24T00:16:13.495Z,72.78
2022-11-24T00:18:49.251Z,72.85
2022-11-24T00:21:23.701Z,72.95
2022-11-24T00:23:55.935Z,72.99
2022-11-24T00:26:29.366Z,72.72
2022-11-24T00:29:03.515Z,72.69
2022-11-24T00:31:36.708Z,72.90
2022-11-24T00:34:11.925Z,73.04
2022-11-24T00:36:43.122Z,73.06
2022-11-24T00:39:17.686Z,73.13
2022-11-24T00:41:49.687Z,73.08
2022-11-24T00:44:21.272Z,73.05
2022-11-24T00:46:52.790Z,73.00
2022-11-24T00:49:24.604Z,72.97
2022-11-24T00:51:56.758Z,72.87
2022-11-24T00:54:28.911Z,72.98
2022-11-24T00:57:01.343Z,73.03
2022-11-24T00:59:33.196Z,72.75
2022-11-24T01:02:05.073Z,73.02
2022-11-24T01:04:36.661Z,73.05
2022-11-24T01:07:11.591Z,73.02
2022-11-24T01:09:45.810Z,72.83
2022-11-24T01:12:17.182Z,72.68
2022-11-24T01:14:49.403Z,72.81
2022-11-24T01:17:21.167Z,72.95
2022-11-24T01:19:53.093Z,72.79
2022-11-24T01:22:26.770Z,72.58
2022-11-24T01:24:58.098Z,72.88
2022-11-24T01:27:29.554Z,72.72
2022-11-24T01:30:01.965Z,72.82
2022-11-24T01:32:36.489Z,72.68
2022-11-24T01:35:10.205Z,72.74
2022-11-24T01:37:41.474Z,72.64
2022-11-24T01:40:15.306Z,72.77
2022-11-24T01:42:53.834Z,72.98
2022-11-24T01:45:45.533Z,73.02
2022-11-24T01:51:15.238Z,72.93
2022-11-24T01:53:54.711Z,72.92
2022-11-24T01:56:27.127Z,72.88
2022-11-24T01:59:02.640Z,72.75
2022-11-24T02:01:35.286Z,72.72
2022-11-24T02:04:10.412Z,72.92
2022-11-24T02:06:45.200Z,72.85
2022-11-24T02:09:23.267Z,72.77
2022-11-24T02:11:55.311Z,72.75
2022-11-24T02:14:27.955Z,72.91
2022-11-24T02:17:00.450Z,72.86
2022-11-24T02:19:44.623Z,72.85
2022-11-24T02:22:21.535Z,72.94
2022-11-24T02:24:57.567Z,72.77
2022-11-24T02:27:29.520Z,73.02
2022-11-24T02:30:01.584Z,72.93
2022-11-24T02:32:35.201Z,72.75
2022-11-24T02:35:11.065Z,72.62
2022-11-24T02:37:42.394Z,72.64
2022-11-24T02:40:20.352Z,72.60
2022-11-24T02:42:53.880Z,72.74
2022-11-24T02:45:26.331Z,72.61
2022-11-24T02:47:57.577Z,72.88
2022-11-24T02:50:29.414Z,72.73
2022-11-24T02:53:02.376Z,73.00
2022-11-24T02:55:34.411Z,72.88
2022-11-24T02:58:05.687Z,72.91
2022-11-24T03:00:37.081Z,72.82
2022-11-24T03:03:08.721Z,72.95
2022-11-24T03:05:43.536Z,73.06
2022-11-24T03:08:14.841Z,72.93
2022-11-24T03:10:46.435Z,72.93
2022-11-24T03:13:17.939Z,72.91
2022-11-24T03:15:49.605Z,72.87
2022-11-24T03:18:21.195Z,73.06
2022-11-24T03:20:53.081Z,72.82
2022-11-24T03:23:25.182Z,72.86
2022-11-24T03:25:56.693Z,72.86
2022-11-24T03:28:28.675Z,72.76
2022-11-24T03:31:00.233Z,72.73
2022-11-24T03:33:31.628Z,72.84
2022-11-24T03:36:03.524Z,72.80
2022-11-24T03:38:40.620Z,72.76
2022-11-24T03:41:13.804Z,72.72
2022-11-24T03:43:45.134Z,72.49
2022-11-24T03:46:16.731Z,72.58
2022-11-24T03:48:50.033Z,72.65
2022-11-24T03:51:22.033Z,72.65
2022-11-24T03:53:53.461Z,72.53
2022-11-24T03:56:25.070Z,72.80
2022-11-24T03:58:57.341Z,72.70
2022-11-24T04:01:28.776Z,72.50
2022-11-24T04:04:00.449Z,72.66
2022-11-24T04:06:32.188Z,72.64
2022-11-24T04:09:04.507Z,72.48
2022-11-24T04:11:53.873Z,72.46
2022-11-24T04:14:25.239Z,72.40
2022-11-24T04:16:56.887Z,72.34
2022-11-24T04:19:28.896Z,72.23
2022-11-24T04:22:01.949Z,72.35
2022-11-24T04:24:33.818Z,72.37
2022-11-24T04:27:05.624Z,72.43
2022-11-24T04:29:36.870Z,72.39
2022-11-24T04:32:09.194Z,72.43
2022-11-24T04:34:40.419Z,72.55
2022-11-24T04:37:11.755Z,72.74
2022-11-24T04:39:45.400Z,72.73
2022-11-24T04:42:17.216Z,72.81
2022-11-24T04:44:52.275Z,72.79
2022-11-24T04:47:25.351Z,72.67
2022-11-24T04:49:57.153Z,72.68
2022-11-24T04:52:31.407Z,72.63
2022-11-24T04:55:03.532Z,72.41
2022-11-24T04:57:37.089Z,72.77
2022-11-24T05:00:15.084Z,72.54
2022-11-24T05:02:46.665Z,72.60
2022-11-24T05:05:18.579Z,72.77
2022-11-24T05:07:50.171Z,72.65
2022-11-24T05:10:37.894Z,72.51
2022-11-24T05:13:12.486Z,72.68
2022-11-24T05:15:44.114Z,72.58
2022-11-24T05:18:16.846Z,72.63
2022-11-24T05:20:52.099Z,72.49
2022-11-24T05:23:22.693Z,72.47
2022-11-24T05:25:54.573Z,72.31
2022-11-24T05:28:26.045Z,72.47
2022-11-24T05:30:59.880Z,72.38
2022-11-24T05:33:33.745Z,72.33
2022-11-24T05:36:31.353Z,72.38
2022-11-24T05:39:02.748Z,72.41
2022-11-24T05:41:33.944Z,72.32
2022-11-24T05:44:06.034Z,72.18
2022-11-24T05:46:37.547Z,72.13
2022-11-24T05:49:08.677Z,72.26
2022-11-24T05:51:40.237Z,72.10
2022-11-24T05:54:11.337Z,72.15
2022-11-24T05:56:42.283Z,72.16
2022-11-24T05:59:13.072Z,72.27
2022-11-24T06:01:43.936Z,72.09
2022-11-24T06:04:15.130Z,72.00
2022-11-24T06:06:47.267Z,71.90
2022-11-24T06:09:18.435Z,72.05
2022-11-24T06:11:49.995Z,72.00
2022-11-24T06:14:20.864Z,72.00
2022-11-24T06:16:51.699Z,71.98
2022-11-24T06:19:22.609Z,71.86
2022-11-24T06:21:53.965Z,72.04
2022-11-24T06:24:25.033Z,72.10
2022-11-24T06:26:55.886Z,72.04
2022-11-24T06:29:26.809Z,72.02
2022-11-24T06:31:57.682Z,72.02
2022-11-24T06:34:28.520Z,72.02
2022-11-24T06:36:59.419Z,71.95
2022-11-24T06:39:30.253Z,72.17
2022-11-24T06:42:01.129Z,72.14
2022-11-24T06:44:32.297Z,72.17
2022-11-24T06:47:03.345Z,72.05
2022-11-24T06:49:34.131Z,71.91
2022-11-24T06:52:14.258Z,71.98
2022-11-24T06:54:45.225Z,71.95
2022-11-24T06:57:20.472Z,71.85
2022-11-24T06:59:52.184Z,71.89
2022-11-24T07:02:23.037Z,71.98
2022-11-24T07:04:53.841Z,71.90
2022-11-24T07:07:24.897Z,71.85
2022-11-24T07:09:55.779Z,71.82
2022-11-24T07:12:29.367Z,71.72
2022-11-24T07:15:00.268Z,71.93
2022-11-24T07:17:31.084Z,71.78
2022-11-24T07:20:02.053Z,71.73
2022-11-24T07:22:32.978Z,71.95
2022-11-24T07:25:07.387Z,71.79
2022-11-24T07:27:38.353Z,71.80
2022-11-24T07:30:11.302Z,71.81
2022-11-24T07:32:42.206Z,71.78
2022-11-24T07:35:13.130Z,71.70
2022-11-24T07:37:43.940Z,71.66
2022-11-24T07:40:15.581Z,71.65
2022-11-24T07:42:46.386Z,71.91
2022-11-24T07:45:17.506Z,71.81
2022-11-24T07:47:48.407Z,71.75
2022-11-24T07:50:20.743Z,71.81
2022-11-24T07:52:51.632Z,71.79
2022-11-24T07:55:22.554Z,71.79
2022-11-24T07:57:53.351Z,71.81
2022-11-24T08:00:24.602Z,71.96
2022-11-24T08:02:55.925Z,71.68
2022-11-24T08:05:26.816Z,71.60
2022-11-24T08:08:00.577Z,71.45
2022-11-24T08:10:31.435Z,71.51
2022-11-24T08:13:04.234Z,71.48
2022-11-24T08:15:35.097Z,71.54
2022-11-24T08:18:06.250Z,71.39
2022-11-24T08:20:37.555Z,71.53
2022-11-24T08:23:09.038Z,71.64
2022-11-24T08:25:39.988Z,71.44
2022-11-24T08:28:10.892Z,71.48
2022-11-24T08:30:41.825Z,71.36
2022-11-24T08:33:12.898Z,71.24
2022-11-24T08:35:43.768Z,71.21
2022-11-24T08:38:17.273Z,71.39
2022-11-24T08:40:48.192Z,71.32
2022-11-24T08:43:19.012Z,71.24
2022-11-24T08:45:49.865Z,71.30
2022-11-24T08:48:20.813Z,71.30
2022-11-24T08:50:51.691Z,71.20
2022-11-24T08:53:22.576Z,71.08
2022-11-24T08:55:53.457Z,70.99
2022-11-24T08:58:24.229Z,70.88
2022-11-24T09:00:55.369Z,70.89
2022-11-24T09:03:26.398Z,71.12
2022-11-24T09:05:57.288Z,71.19
2022-11-24T09:08:28.073Z,71.21
2022-11-24T09:11:02.655Z,71.09
2022-11-24T09:13:33.500Z,70.98
2022-11-24T09:16:08.026Z,71.07
2022-11-24T09:18:39.284Z,70.84
2022-11-24T09:21:11.304Z,70.97
2022-11-24T09:23:42.618Z,71.24
2022-11-24T09:26:15.219Z,71.11
2022-11-24T09:28:47.037Z,71.10
2022-11-24T09:31:19.126Z,70.98
2022-11-24T09:33:49.976Z,71.04
2022-11-24T09:36:21.943Z,70.82
2022-11-24T09:38:52.987Z,71.05
2022-11-24T09:41:36.559Z,71.04
2022-11-24T09:44:34.183Z,71.08
2022-11-24T09:47:15.083Z,70.87
2022-11-24T09:49:57.360Z,70.92
2022-11-24T09:52:42.333Z,70.72
2022-11-24T09:55:28.738Z,70.69
2022-11-24T09:58:07.469Z,70.48
2022-11-24T10:00:40.314Z,70.56
2022-11-24T10:03:23.789Z,70.16
2022-11-24T10:05:55.314Z,70.53
2022-11-24T10:08:49.948Z,70.61
2022-11-24T10:11:36.466Z,70.58
2022-11-24T10:14:33.061Z,70.50
2022-11-24T10:17:13.368Z,70.49
2022-11-24T10:19:52.126Z,70.48
2022-11-24T10:22:37.047Z,70.63
2022-11-24T10:25:13.930Z,70.53
2022-11-24T10:27:47.881Z,70.73
2022-11-24T10:30:22.677Z,70.76
2022-11-24T10:32:59.633Z,70.67
2022-11-24T10:35:39.059Z,70.59
2022-11-24T10:38:25.359Z,70.46
2022-11-24T10:41:00.904Z,70.35
2022-11-24T10:43:31.944Z,70.37
2022-11-24T10:46:12.649Z,70.12
2022-11-24T10:48:49.305Z,70.31
2022-11-24T10:51:45.184Z,70.14
2022-11-24T10:54:19.829Z,70.24
2022-11-24T10:56:54.174Z,70.19
2022-11-24T10:59:47.195Z,70.31
2022-11-24T11:02:47.672Z,70.26
2022-11-24T11:05:43.011Z,70.08
2022-11-24T11:08:20.442Z,70.14
2022-11-24T11:11:11.367Z,69.99
2022-11-24T11:13:52.188Z,69.87
2022-11-24T11:16:33.896Z,70.03
2022-11-24T11:19:26.010Z,69.63
2022-11-24T11:22:05.356Z,69.62
2022-11-24T11:24:37.269Z,69.90
2022-11-24T11:27:20.793Z,69.93
2022-11-24T11:35:46.988Z,70.14
2022-11-24T11:38:18.347Z,69.97
2022-11-24T11:40:52.582Z,70.11
2022-11-24T11:43:28.784Z,70.08
2022-11-24T11:46:05.180Z,70.07
2022-11-24T11:48:43.635Z,69.97
2022-11-24T11:54:32.411Z,69.86
2022-11-24T11:57:12.221Z,69.90
2022-11-24T11:59:59.186Z,69.93
2022-11-24T12:03:06.324Z,69.82
2022-11-24T12:05:48.710Z,69.74
2022-11-24T12:08:49.501Z,70.02
2022-11-24T12:11:33.343Z,69.74
2022-11-24T12:14:18.611Z,69.51
2022-11-24T12:16:58.767Z,69.53
2022-11-24T12:19:51.399Z,69.46
2022-11-24T12:22:34.639Z,69.36
2022-11-24T12:25:24.110Z,69.24
2022-11-24T12:28:09.070Z,69.23
2022-11-24T12:30:51.900Z,69.26
2022-11-24T12:33:40.298Z,69.22
2022-11-24T12:36:25.972Z,69.01
2022-11-24T12:39:06.629Z,69.00
2022-11-24T12:41:56.774Z,69.16
2022-11-24T12:44:52.481Z,69.31
2022-11-24T12:47:35.132Z,69.65
2022-11-24T12:50:13.011Z,69.67
2022-11-24T12:52:52.891Z,69.37
2022-11-24T12:55:28.277Z,69.21
2022-11-24T12:58:10.998Z,69.30
2022-11-24T13:01:00.608Z,69.43
2022-11-24T13:03:45.953Z,69.53
2022-11-24T13:06:23.468Z,69.28
2022-11-24T13:08:55.034Z,69.29
2022-11-24T13:11:43.789Z,69.22
2022-11-24T13:14:24.674Z,69.31
2022-11-24T13:17:27.829Z,69.42
2022-11-24T13:19:50.608Z,69.62
2022-11-24T13:22:27.264Z,69.43
2022-11-24T13:25:17.492Z,69.38
2022-11-24T13:27:52.990Z,69.18
2022-11-24T13:30:59.741Z,69.18
2022-11-24T13:33:33.844Z,69.22
2022-11-24T13:36:54.218Z,69.21
2022-11-24T13:39:50.907Z,69.08
2022-11-24T13:42:41.587Z,69.19
2022-11-24T13:45:49.295Z,69.19
2022-11-24T13:48:51.213Z,69.30
2022-11-24T13:51:26.176Z,69.41
2022-11-24T13:54:01.092Z,69.36
2022-11-24T13:56:33.501Z,69.45
2022-11-24T13:59:19.460Z,69.49
2022-11-24T14:01:59.551Z,69.59
2022-11-24T14:04:43.200Z,69.47
2022-11-24T14:07:16.909Z,69.43
2022-11-24T14:09:50.972Z,69.52
2022-11-24T14:12:24.526Z,69.47
2022-11-24T14:15:14.231Z,69.30
2022-11-24T14:17:45.737Z,69.29
2022-11-24T14:20:25.893Z,69.12
2022-11-24T14:22:56.937Z,69.16
2022-11-24T14:25:32.058Z,68.97
2022-11-24T14:28:03.700Z,69.00
2022-11-24T14:30:34.636Z,68.89
2022-11-24T14:33:12.265Z,68.89
2022-11-24T14:35:48.477Z,68.89
2022-11-24T14:38:19.516Z,69.22
2022-11-24T14:40:52.453Z,69.01
2022-11-24T14:43:29.072Z,68.96
2022-11-24T14:46:03.615Z,69.14
2022-11-24T14:48:37.936Z,69.06
2022-11-24T14:51:15.454Z,69.07
2022-11-24T14:53:49.301Z,69.09
2022-11-24T14:56:28.221Z,68.84
2022-11-24T14:59:00.788Z,68.80
2022-11-24T15:01:36.302Z,68.98
2022-11-24T15:04:54.445Z,68.89
2022-11-24T15:07:22.653Z,69.02
2022-11-24T15:09:58.042Z,69.16
2022-11-24T15:12:34.501Z,68.70
2022-11-24T15:15:17.652Z,68.93
2022-11-24T15:17:51.732Z,69.11
2022-11-24T15:20:28.617Z,69.17
2022-11-24T15:23:24.844Z,69.03
2022-11-24T15:25:56.612Z,69.15
2022-11-24T15:28:27.883Z,69.42
2022-11-24T15:31:01.215Z,69.41
2022-11-24T15:33:32.888Z,69.45
2022-11-24T15:36:04.207Z,69.19
2022-11-24T15:38:35.221Z,69.25
2022-11-24T15:41:18.904Z,69.35
2022-11-24T15:43:49.889Z,69.44
2022-11-24T15:46:24.221Z,69.61
2022-11-24T15:48:55.728Z,69.44
2022-11-24T15:51:28.354Z,69.49
2022-11-24T15:54:01.408Z,69.54
2022-11-24T15:56:36.872Z,69.23
2022-11-24T15:59:18.561Z,69.30
2022-11-24T16:01:51.556Z,69.30
2022-11-24T16:04:22.500Z,69.33
2022-11-24T16:06:53.318Z,69.28
2022-11-24T16:09:24.402Z,69.27
2022-11-24T16:11:55.911Z,69.09
2022-11-24T16:14:26.849Z,69.42
2022-11-24T16:16:58.407Z,69.52
2022-11-24T16:19:29.302Z,69.18
2022-11-24T16:22:00.245Z,69.21
2022-11-24T16:24:31.305Z,69.13
2022-11-24T16:27:02.363Z,69.02
2022-11-24T16:29:38.199Z,69.26
2022-11-24T16:32:09.964Z,69.23
2022-11-24T16:34:40.802Z,69.33
2022-11-24T16:37:11.969Z,69.39
2022-11-24T16:39:49.686Z,69.50
2022-11-24T16:42:21.285Z,69.58
2022-11-24T16:44:52.886Z,69.48
2022-11-24T16:47:24.601Z,69.49
2022-11-24T16:49:56.385Z,69.57
2022-11-24T16:52:27.465Z,69.50
2022-11-24T16:54:58.804Z,69.55
2022-11-24T16:57:29.949Z,69.58
2022-11-24T17:00:00.930Z,69.54
2022-11-24T17:02:32.732Z,69.43
2022-11-24T17:05:03.738Z,69.52
2022-11-24T17:07:35.600Z,69.79
2022-11-24T17:10:08.028Z,70.00
2022-11-24T17:12:40.876Z,70.28
2022-11-24T17:20:58.010Z,69.82
2022-11-24T17:23:29.264Z,69.88
2022-11-24T17:26:06.022Z,70.11
2022-11-24T17:28:36.882Z,69.90
2022-11-24T17:31:15.610Z,69.89
2022-11-24T17:33:46.700Z,69.81
2022-11-24T17:36:17.792Z,69.90
2022-11-24T17:38:50.379Z,69.81
2022-11-24T17:41:22.098Z,69.89
2022-11-24T17:43:53.829Z,69.92
2022-11-24T17:46:25.222Z,70.09
2022-11-24T17:48:57.795Z,70.02
2022-11-24T17:51:29.298Z,69.84
2022-11-24T17:54:05.974Z,69.85
2022-11-24T17:56:49.993Z,69.92
2022-11-24T17:59:20.819Z,69.89
2022-11-24T18:01:52.275Z,70.03
2022-11-24T18:04:23.631Z,69.68
2022-11-24T18:06:54.687Z,69.82
2022-11-24T18:09:26.232Z,69.76
2022-11-24T18:11:57.169Z,69.84
2022-11-24T18:14:28.517Z,69.72
2022-11-24T18:16:59.546Z,69.51
2022-11-24T18:19:30.688Z,69.70
2022-11-24T18:22:01.869Z,69.61
2022-11-24T18:24:32.744Z,69.85
2022-11-24T18:27:03.800Z,69.92
2022-11-24T18:29:34.899Z,70.03
2022-11-24T18:32:06.166Z,69.96
2022-11-24T18:34:37.632Z,70.15
2022-11-24T18:37:09.101Z,70.13
2022-11-24T18:39:42.799Z,70.06
2022-11-24T18:42:19.805Z,70.05
2022-11-24T18:44:53.878Z,70.21
2022-11-24T18:47:25.571Z,70.33
2022-11-24T18:50:00.441Z,70.43
2022-11-24T18:52:31.749Z,70.46
2022-11-24T18:55:04.832Z,70.39
2022-11-24T18:57:36.488Z,70.24
2022-11-24T19:00:11.628Z,70.43
2022-11-24T19:02:42.796Z,70.25
2022-11-24T19:05:13.904Z,70.23
2022-11-24T19:07:47.156Z,70.39
2022-11-24T19:10:18.559Z,70.45
2022-11-24T19:12:49.388Z,70.30
2022-11-24T19:15:20.611Z,70.22
2022-11-24T19:17:55.145Z,70.28
2022-11-24T19:20:26.215Z,70.54
2022-11-24T19:22:58.347Z,70.45
2022-11-24T19:25:29.523Z,70.49
2022-11-24T19:28:00.615Z,70.61
2022-11-24T19:30:32.500Z,70.74
2022-11-24T19:33:03.612Z,70.61
2022-11-24T19:35:36.109Z,70.70
2022-11-24T19:38:08.241Z,70.49
2022-11-24T19:40:41.299Z,70.46
2022-11-24T19:43:12.377Z,70.34
2022-11-24T19:45:44.517Z,70.39
2022-11-24T19:48:18.850Z,70.33
2022-11-24T19:51:03.591Z,70.56
2022-11-24T19:53:34.821Z,70.30
2022-11-24T19:56:10.586Z,70.33
2022-11-24T19:58:43.567Z,70.34
2022-11-24T20:01:16.807Z,70.01
2022-11-24T20:03:50.755Z,70.27
2022-11-24T20:06:21.802Z,70.44
2022-11-24T20:08:52.877Z,70.41
2022-11-24T20:11:28.054Z,70.34
2022-11-24T20:14:00.291Z,70.41
2022-11-24T20:16:33.173Z,70.16
2022-11-24T20:19:17.663Z,70.36
2022-11-24T20:21:50.327Z,70.31
2022-11-24T20:24:24.648Z,70.36
2022-11-24T20:26:59.083Z,70.34
2022-11-24T20:29:32.234Z,70.19
2022-11-24T20:32:03.264Z,70.30
2022-11-24T20:34:34.728Z,70.29
2022-11-24T20:37:13.269Z,70.62
2022-11-24T20:39:44.390Z,70.47
2022-11-24T20:42:15.537Z,70.42
2022-11-24T20:44:46.701Z,70.45
2022-11-24T20:47:17.847Z,70.28
2022-11-24T20:49:49.796Z,70.50
2022-11-24T20:52:20.668Z,70.33
2022-11-24T20:54:51.589Z,70.41
2022-11-24T20:57:22.771Z,70.30
2022-11-24T20:59:53.562Z,70.48
2022-11-24T21:02:25.986Z,70.24
2022-11-24T21:04:57.161Z,70.37
2022-11-24T21:07:28.489Z,70.34
2022-11-24T21:09:59.539Z,70.26
2022-11-24T21:12:30.650Z,70.31
2022-11-24T21:15:01.775Z,70.53
2022-11-24T21:17:34.220Z,70.52
2022-11-24T21:20:05.657Z,70.31
2022-11-24T21:22:38.997Z,70.46
2022-11-24T21:25:11.378Z,70.18
2022-11-24T21:27:42.806Z,70.24
2022-11-24T21:30:15.422Z,70.42
2022-11-24T21:32:46.661Z,70.33
2022-11-24T21:35:17.884Z,70.39
2022-11-24T21:37:48.800Z,70.44
2022-11-24T21:40:20.108Z,70.34
2022-11-24T21:42:51.147Z,70.45
2022-11-24T21:45:22.057Z,70.41
2022-11-24T21:47:53.104Z,70.39
2022-11-24T21:50:24.344Z,70.83
2022-11-24T21:52:58.118Z,70.66
2022-11-24T21:55:33.231Z,70.56
2022-11-24T21:58:07.038Z,70.41
2022-11-24T22:00:38.085Z,70.52
2022-11-24T22:03:09.130Z,70.52
2022-11-24T22:05:39.990Z,70.49
2022-11-24T22:08:11.150Z,70.61
2022-11-24T22:10:41.935Z,70.66
2022-11-24T22:13:12.791Z,70.42
2022-11-24T22:15:43.723Z,70.49
2022-11-24T22:18:14.806Z,70.31
2022-11-24T22:20:57.496Z,70.28
2022-11-24T22:23:28.679Z,70.43
2022-11-24T22:26:02.894Z,70.24
2022-11-24T22:28:35.611Z,70.14
2022-11-24T22:31:11.436Z,70.44
2022-11-24T22:33:44.084Z,70.40
2022-11-24T22:36:16.670Z,70.45
2022-11-24T22:38:48.147Z,70.51
2022-11-24T22:41:20.042Z,70.36
2022-11-24T22:43:51.496Z,70.52
2022-11-24T22:46:27.138Z,70.49
2022-11-24T22:48:59.508Z,70.61
2022-11-24T22:51:32.599Z,70.79
2022-11-24T22:54:05.080Z,70.87
2022-11-24T22:56:36.862Z,70.75
2022-11-24T22:59:07.871Z,70.79
2022-11-24T23:01:39.314Z,70.78
2022-11-24T23:04:10.694Z,71.10
2022-11-24T23:06:42.193Z,70.79
2022-11-24T23:09:16.747Z,70.57
2022-11-24T23:11:48.536Z,70.40
2022-11-24T23:14:20.066Z,70.72
2022-11-24T23:16:52.392Z,70.60
2022-11-24T23:19:23.739Z,70.64
2022-11-24T23:21:54.924Z,70.96
2022-11-24T23:24:28.118Z,71.07
2022-11-24T23:26:59.674Z,70.70
2022-11-24T23:29:30.808Z,70.81
2022-11-24T23:32:01.976Z,70.71
2022-11-24T23:34:33.173Z,70.75
2022-11-24T23:37:04.554Z,70.81
2022-11-24T23:39:35.544Z,70.72
2022-11-24T23:42:06.736Z,70.70
2022-11-24T23:44:37.869Z,70.90
2022-11-24T23:47:08.955Z,71.11
2022-11-24T23:49:39.725Z,70.80
2022-11-24T23:52:10.697Z,70.94
2022-11-24T23:54:41.525Z,71.07
2022-11-24T23:57:12.309Z,70.94
2022-11-24T23:59:43.157Z,71.05
